Bodensee (Kressbronn): 4,4°C  -  Teich der Wetterzentrale Bad Schussenried: 5,0°C  
22.01.2020Höhe
ü. NN
ZeitTemperatur (°C)Nieder-
schlag
Luft-
feuchte
Luft-
druck
Wind
StationaktuellMinimumMaximumaktuellMaximum
Aldingen654 m04:31-6,5-7,7 (07:47)-5,7 (15:22)0,0 l/m²92%1037,60,0 km/h (0 Bft) S-SW7,4 km/h (2 Bft) W-NW (13:16)
Allmendingen541 m04:30-3,3-3,3 (04:15)-2,8 (14:25)0,0 l/m²93%1036,54,8 km/h (1 Bft) S-SO17,7 km/h (3 Bft) O-NO (05:00)
Altshausen574 m04:30-4,3-4,5 (03:50)-3,8 (00:00)0,0 l/m²86%1035,11,6 km/h (1 Bft) SO8,0 km/h (2 Bft) O (00:39)
Amstetten-Reutti663 m04:30-3,8-3,9 (03:35)-3,5 (13:55)0,0 l/m²96%1036,09,7 km/h (2 Bft) SO27,4 km/h (4 Bft) O (05:10)
Amtzell-Grenis677 m04:30-5,4-5,5 (04:20)-4,9 (00:55)0,0 l/m²79%1037,91,6 km/h (1 Bft) O1,6 km/h (1 Bft) O (00:00)
Aulendorf570 m04:30-4,6-4,6 (03:20)-3,7 (00:00)0,0 l/m²94%1036,10,0 km/h (0 Bft) S4,8 km/h (1 Bft) N-NO (01:25)
Bad Krozingen233 m04:30-3,6-3,6 (06:55)-2,1 (15:50)0,0 l/m²95%1037,30,0 km/h (0 Bft) W-NW8,2 km/h (2 Bft) N-NO (16:50)
Bad Saulgau595 m04:30-4,6-4,7 (04:30)-3,9 (14:10)0,0 l/m²94%1035,50,0 km/h (0 Bft) W-SW17,7 km/h (3 Bft) S-SW (05:45)
Bad Saulgau-Lampertsweiler627 m04:30-4,7-4,9 (04:20)-4,0 (00:00)0,0 l/m²91%1038,60,0 km/h (0 Bft) O11,3 km/h (2 Bft) O (04:10)
Bad Schussenried572 m04:30-4,0-4,0 (04:30)-3,2 (00:00)0,0 l/m²97%1035,00,0 km/h (0 Bft) NO4,8 km/h (1 Bft) NO (02:05)
Bergatreute615 m04:30-4,5-4,7 (04:10)-4,1 (00:45)0,0 l/m²97%1036,30,0 km/h (0 Bft) SO9,7 km/h (2 Bft) S-SO (00:45)
Biberach (Riss), Boehringer533 m04:40-3,6-3,8 (04:40)-2,9 (00:20)1,0 l/m²99%1034,05,8 km/h (2 Bft) SW12,2 km/h (3 Bft) SW (04:40)
Biberach (Riss), Realschule553 m04:30-4,2-4,3 (04:15)-3,6 (00:10)0,0 l/m²97%1037,48,0 km/h (2 Bft) O-SO16,1 km/h (3 Bft) W-SW (04:05)
Burgrieden523 m04:30-3,4-3,4 (03:50)-3,0 (00:00)0,0 l/m²91%1036,53,2 km/h (1 Bft) SW9,7 km/h (2 Bft) S-SO (03:55)
Burgrieden-Hochstetten510 m04:30-3,3-3,3 (03:50)-2,8 (12:30)0,0 l/m²94%1036,94,8 km/h (1 Bft) S-SW17,7 km/h (3 Bft) O (05:55)
Ebersbach579 m04:30-4,3-4,3 (03:40)-3,6 (00:00)0,0 l/m²96%1037,30,0 km/h (0 Bft) SW8,0 km/h (2 Bft) O (00:20)
Ebersbach-Boos605 m04:30-4,8-4,8 (04:30)-4,0 (00:10)0,0 l/m²97%1037,20,0 km/h (0 Bft) SO0,0 km/h (0 Bft) O-NO (00:00)
Ebersbach-Menzenweiler661 m04:30-4,8-4,9 (04:10)-4,1 (00:05)0,0 l/m²97%1037,23,2 km/h (1 Bft) S8,0 km/h (2 Bft) O (00:25)
Erlenmoos645 m04:30-3,9-3,9 (03:55)-3,3 (00:00)0,0 l/m²93%1036,64,8 km/h (1 Bft) S-SW9,7 km/h (2 Bft) N (01:55)
Ertingen569 m04:30-4,0-4,0 (02:10)-3,6 (00:00)0,0 l/m²96%1036,61,6 km/h (1 Bft) SO8,0 km/h (2 Bft) N (02:00)
Friedrichshafen405 m04:30-2,3-2,3 (08:20)-2,0 (14:45)0,0 l/m²92%1037,48,0 km/h (2 Bft) N-NO19,3 km/h (3 Bft) NO (22:05)
Günzburg443 m04:30-2,6-2,8 (03:25)-2,2 (00:05)0,0 l/m²91%1033,93,2 km/h (1 Bft) S9,7 km/h (2 Bft) NO (00:35)
Hochdorf-Appendorf537 m04:30-4,3-4,4 (04:10)-3,6 (01:00)0,0 l/m²78%1036,38,0 km/h (2 Bft) S12,9 km/h (3 Bft) SO (04:05)
Höchsten802 m04:30-7,2-7,3 (04:15)-4,7 (01:05)0,0 l/m²92%1034,80,0 km/h (0 Bft) W-NW6,4 km/h (2 Bft) N (00:00)
Horgenzell618 m04:30-4,9-5,0 (03:30)-4,4 (01:05)0,0 l/m²95%1035,40,0 km/h (0 Bft) O12,9 km/h (3 Bft) NO (00:10)
Hoßkirch632 m04:30-4,9-5,0 (04:20)-4,3 (00:00)0,0 l/m²95%1035,51,6 km/h (1 Bft) S9,7 km/h (2 Bft) O (01:35)
Isny, Am Dreifingerbach695 m04:30-8,1-8,6 (03:45)-6,0 (00:00)0,0 l/m²93%1036,30,0 km/h (0 Bft) O0,0 km/h (0 Bft) O-NO (04:30)
Isny, Weidachweg706 m04:30-7,4-7,7 (03:05)-6,2 (00:00)0,0 l/m²87%1038,73,2 km/h (1 Bft) S-SO6,4 km/h (2 Bft) N (00:20)
Kappel-Grafenhausen163 m04:25-2,2-3,6 (02:50)-2,2 (14:50)0,0 l/m²93%1035,03,2 km/h (1 Bft) N14,5 km/h (3 Bft) N (15:20)
Kirchberg an der Iller584 m04:30-3,7-3,7 (04:30)-2,9 (05:00)0,0 l/m²87%1025,02,3 km/h (1 Bft) SO8,9 km/h (2 Bft) W-NW (05:30)
Kißlegg-Staibshof709 m04:30-5,3-5,3 (03:20)-4,8 (00:00)0,0 l/m²96%1036,80,0 km/h (0 Bft) O0,0 km/h (0 Bft) NO (00:00)
Kressbronn398 m04:30-1,9-3,0 (00:00)-1,8 (03:00)0,0 l/m²89%1036,16,4 km/h (2 Bft) N-NW9,7 km/h (2 Bft) N-NW (00:26)
Kreuzthal-Steinberg-Alpe930 m04:30-2,1-3,2 (01:00)-1,1 (04:20)0,0 l/m²100%1035,00,4 km/h (0 Bft) SO4,7 km/h (1 Bft) SO (03:20)
Kreuzthal-Steinberggipfel1040 m04:200,90,2 (03:40)2,4 (02:00)-62%1035,02,9 km/h (1 Bft) SW11,9 km/h (3 Bft) W-SW (00:20)
Kristberg im Montafon (AT)1425 m04:274,83,4 (02:31)5,1 (01:41)0,0 l/m²34%1041,68,6 km/h (2 Bft) N-NO11,9 km/h (3 Bft) N (01:36)
Laupheim500 m04:30-3,4-3,6 (04:00)-3,1 (00:00)0,0 l/m²93%1036,04,8 km/h (1 Bft) S-SW9,7 km/h (2 Bft) W (03:45)
Leutkirch-Heggelbach670 m04:30-5,2-5,3 (03:00)-4,4 (00:00)0,0 l/m²94%1036,00,0 km/h (0 Bft) S-SW0,0 km/h (0 Bft) N (00:00)
Lindau-Insel420 m04:30-1,2-1,5 (08:25)-1,1 (14:35)0,0 l/m²90%1036,56,4 km/h (2 Bft) NO12,9 km/h (3 Bft) W (12:25)
Lindau-Stadt412 m04:30-1,3-1,8 (08:15)-1,3 (12:30)0,0 l/m²91%1036,73,2 km/h (1 Bft) NO12,9 km/h (3 Bft) W (13:00)
Maierhöfen im Allgäu733 m04:30-7,6-8,0 (03:00)-6,7 (00:00)0,0 l/m²93%1037,10,0 km/h (0 Bft) O-SO4,8 km/h (1 Bft) O-SO (01:55)
Maselheim543 m04:30-4,0-4,1 (03:20)-3,7 (14:05)0,0 l/m²94%1036,74,8 km/h (1 Bft) W19,3 km/h (3 Bft) O (05:15)
Maselheim-Sulmingen548 m04:30-4,1-4,1 (04:10)-3,6 (14:15)0,0 l/m²95%1038,39,7 km/h (2 Bft) W16,1 km/h (3 Bft) O-SO (05:00)
Mietingen-Baltringen528 m04:30-3,9-3,9 (04:30)-3,1 (00:45)0,0 l/m²92%1038,60,0 km/h (0 Bft) W-SW8,0 km/h (2 Bft) S (03:45)
Mindelheim-Apfeltrach620 m04:31-5,1-5,1 (04:27)-3,2 (00:00)0,0 l/m²93%1037,04,8 km/h (1 Bft) S-SO11,3 km/h (2 Bft) S-SW (03:53)
Mittelbiberach577 m04:28-4,3-4,4 (04:15)-3,8 (01:00)0,0 l/m²93%1037,81,6 km/h (1 Bft) S9,6 km/h (2 Bft) O (04:22)
Neresheim552 m04:01-4,1-4,1 (04:01)-3,6 (00:00)0,0 l/m²100%1033,56,5 km/h (2 Bft) S-SW6,5 km/h (2 Bft) S-SW (04:01)
Neukirch570 m04:30-3,3-3,8 (07:55)-3,1 (15:05)0,0 l/m²95%1036,66,4 km/h (2 Bft) NO17,7 km/h (3 Bft) O-NO (06:20)
Ochsenhausen, Birkenstraße613 m04:30-3,9-3,9 (04:10)-3,3 (14:05)0,0 l/m²89%1037,00,0 km/h (0 Bft) O-SO0,0 km/h (0 Bft) N-NW (05:00)
Ochsenhausen, Unt. Wiesen575 m04:30-4,3-4,4 (04:05)-3,7 (00:00)0,0 l/m²95%1038,16,4 km/h (2 Bft) SW11,3 km/h (2 Bft) O (01:40)
Opfenbach-Göritz561 m04:30-4,3-4,3 (04:19)-3,7 (02:12)0,0 l/m²92%1035,01,4 km/h (1 Bft) N6,5 km/h (2 Bft) N (04:09)
Ostrach619 m04:30-3,7-3,7 (04:15)-2,9 (00:00)0,0 l/m²96%1034,94,8 km/h (1 Bft) S-SO8,0 km/h (2 Bft) O-NO (01:20)
Ravensburg, Goethestraße428 m04:40-3,1-3,2 (04:05)-2,3 (00:00)0,0 l/m²93%1036,33,2 km/h (1 Bft) O-SO11,3 km/h (2 Bft) NO (00:05)
Ravensburg, Springerstraße441 m04:30-2,7-3,0 (03:50)-2,2 (00:00)0,0 l/m²78%1034,10,0 km/h (0 Bft) N-NO2,3 km/h (1 Bft) W-SW (01:15)
Ravensburg-Wernsreute511 m04:30-3,9-4,0 (03:35)-3,1 (14:55)0,0 l/m²95%1039,54,8 km/h (1 Bft) N-NO24,1 km/h (4 Bft) N (20:10)
Reichenbach an der Fils343 m04:30-4,6-4,7 (04:30)-2,7 (00:00)0,0 l/m²88%1038,31,6 km/h (1 Bft) O-NO6,4 km/h (2 Bft) N-NO (02:50)
Reinstetten559 m04:30-3,8-3,8 (03:25)-3,4 (00:05)0,0 l/m²95%1037,24,8 km/h (1 Bft) S12,9 km/h (3 Bft) S-SO (04:10)
Riedlingen530 m04:30-3,8-3,9 (03:15)-3,3 (00:00)0,0 l/m²95%1036,83,2 km/h (1 Bft) SO6,4 km/h (2 Bft) O-SO (02:20)
Rißtissen489 m04:25-2,6-2,6 (02:10)-2,1 (00:00)0,0 l/m²94%1034,30,0 km/h (0 Bft) S6,4 km/h (2 Bft) O-NO (01:20)
Rottweil-Hausen681 m04:30-5,3-5,7 (02:07)-4,3 (00:00)0,0 l/m²91%1037,13,2 km/h (1 Bft) S-SW9,7 km/h (2 Bft) N (03:22)
Schemmerhofen520 m04:30-3,4-3,4 (04:30)-2,8 (00:00)0,0 l/m²96%1036,54,8 km/h (1 Bft) S-SO8,0 km/h (2 Bft) S-SO (00:15)
Silbertal im Montafon (AT)884 m04:30-1,2-3,3 (00:05)-1,1 (04:10)0,0 l/m²95%1040,70,0 km/h (0 Bft) NW1,8 km/h (1 Bft) N (00:06)
Tettnang466 m04:30-2,9-3,3 (00:00)-2,5 (03:05)0,0 l/m²93%1036,74,8 km/h (1 Bft) N9,7 km/h (2 Bft) N (03:55)
Tuttlingen662 m04:21-7,8-7,8 (04:01)-6,2 (00:01)0,0 l/m²77%1034,40,0 km/h (0 Bft) S-SO5,5 km/h (1 Bft) NO (03:41)
Tuttlingen, Möhringer-Vorstadt711 m04:30-7,1-7,1 (04:30)-5,2 (14:55)0,0 l/m²94%1036,40,0 km/h (0 Bft) S11,3 km/h (2 Bft) N (10:55)
Ummendorf547 m04:30-4,4-4,4 (04:25)-3,6 (00:15)0,0 l/m²87%1037,84,8 km/h (1 Bft) S-SW11,3 km/h (2 Bft) O (01:05)
Ummendorf-Fischbach558 m04:30-4,5-4,5 (03:30)-3,9 (02:15)0,0 l/m²87%1037,54,8 km/h (1 Bft) S-SW11,3 km/h (2 Bft) S (00:00)
Waldburg707 m04:30-5,3-5,3 (03:30)-4,9 (00:00)0,0 l/m²95%1036,20,0 km/h (0 Bft) N6,4 km/h (2 Bft) N (00:25)
Waltenhofen im Allgäu720 m04:25-7,4-7,7 (03:40)-6,2 (00:00)0,0 l/m²92%1036,61,6 km/h (1 Bft) NW12,9 km/h (3 Bft) NW (10:00)
Wangen, Hans-Schnitzer-Weg569 m04:30-3,8-3,8 (04:30)-3,0 (01:55)0,0 l/m²67%1035,43,2 km/h (1 Bft) N3,2 km/h (1 Bft) N (00:10)
Wangen, Südring548 m04:30-3,8-3,8 (04:18)-3,2 (01:57)0,0 l/m²93%1036,23,2 km/h (1 Bft) NO9,7 km/h (2 Bft) N (02:07)
Weingarten500 m04:30-3,5-3,5 (03:30)-2,9 (00:10)0,0 l/m²93%1036,69,7 km/h (2 Bft) S-SO9,7 km/h (2 Bft) O (00:30)
Winterlingen785 m04:15-9,4-9,4 (04:15)-7,2 (00:00)0,0 l/m²92%1036,81,8 km/h (1 Bft) SW2,5 km/h (1 Bft) W (04:05)

Werbung
niederschlagsdatenbank | info | login - erfassung

Sollten Sie Interesse haben, an der Niederschlagsdatenbank teilzunehmen, finden Sie > hier < weitere Informationen.

Niederschlagsdaten der Station Herbertingen - Drosselweg

Bodo Hilzinger

Niederschlagsstation aufgenommen ins Stationsnetz der Wetterwarte Süd am 14.04.2009
Monat: .
Anmerkung:0,0 = nicht messbarer Niederschlag
 -  = kein Niederschlag

Stationsdaten

Höhe

580 m

Lage

Auf Google Maps ansehen

Beschreibung

Die Station liegt am südwestlichen Ortsrand von Herbertingen Richtung Bad Saulgau unweit der noch bestehenden Bundesstraße 32! In einer leichten Senke liegend haben wir Richtung Süden, Westen und Osten freie Sicht auf leicht ansteigendes Gelände Richtung Mieterkingen sprich Bad Saulgau! Nach Norden sind wir eingeschlossen von zwei Baugebieten, die uns aber nicht vor den Wettergewalten schützen! Da sind wir auf Grund unserer schönen freien Lage den Wettergöttern ausgeliefert!<br><br> Die Wetterstation liegt auf 48 Grad 03 nördlicher Breite und auf einer östlichen Länge von 9 Grad 26'52 Minuten!
< Dezember 2019

Januar 2020

TagNiederschlagBemerkung
01.-
02.-
03.0,5
Im Tagesverlauf zeitweise sonnig und Temperaturanstieg in den Plusbereich.Regen in der zweiten Nachthälfte. Der Samstag beginnt mit 4 Grad Plus und Nieseln.
Regen Nieselregen
04.-
Wenig Sonne und kalter Wind bei max. 4 Grad. Trocken.
05.-
Viel Sonne bei 5 Grad im Plus. Der Montag beginnt mit Nebel und minus 3 Grad.
Bodennebel
06.-
Erst zum Nachmittag setzte sich die Sonne gegen den Nebel durch. Dabei Temperaturanstieg in den Plusbereich.Bis zum Ablesezeitpunkt trocken bei 0 Grad.
Bodennebel
07.-
Anfangs noch etwas Nieselregen-danach trocken ,wenig Sonne bei Plusgraden.Der Mittwoch beginnt trocken bei minus 3 Grad.
Nieselregen
08.-
Im Tagesverlauf ansteigende Temperaturen in den unteren Plusbereich. Wenig Sonne aber trocken. Frühtemperatur Donnerstag bei plus drei Grad.
09.-
Ein sonniger Vorfrühlingstag bei Temperaturen um die 10 Grad.Der Freitag beginnt mit 5 Grad plus.
10.0,3
Sonne-Wolkenmix und kalter Wind. Gegen 20 Uhr erste Tropfen.Temperaturen im Plusbereich.
Regen Nieselregen
11.-
Vormittags noch viele Wolken danach zunehmend sonnig. Nach klarer- kalter Nacht beginnt der Sonntag mit Nebel und minus 4 Grad.
Bodennebel
12.0,1
Aus Nebel wurde Hochnebel-erst ab Mittag ein paar Aufhellungen. In den frühen Morgenstunden des Montags ein paar Tropfen auf gefrorenen Boden bei noch -1 Grad.
Nieselregen
13.-
Ab Mittag zunehmend sonnig bei 4 Grad im Plusbereich. Nach teilweise klarer Nacht beginnt der Dienstag mit minus 4 Grad.
14.-
Bei kühlem Wind viel Sonne und Temperaturen um die 6 Grad im Plus.Nach klarer Nacht beginnt der Mittwoch mit minus 3 Grad.
15.-
Ein durchweg sonniger Vorfrühlingstag!Die Temperaturen kletterten schnell in den Plusbereich. Schwacher kalter Wind.Der Donnerstag beginnt mit zwei Grad plus.
16.-
Mit Temperaturen über der 10 Grad Marke war der Donnerstag erneut ein Frühlingstag mit Sonne pur.!! Wohlgemerkt der 16 Januar!! Nach klarer Nacht eröffnet der Freitag mit 3 Grad im Minus.
17.2,0
Nach sonnigem Tagesbeginn zum Spätmittag Bewölkungsverdichtung. Gegen 17 Uhr erste Tropfen. Temperaturen im unteren Plusbereich.
Regen
18.6,5
Kurz nach dem Ablesezeitpunkt kräftiger Schnee-und Schneeregen.Danach wars leicht überzuckert,doch die warme Sonne beendete das kurze Winterintermezzo.Den Rest des Samstags gab es Sonne-Wolkenmix bei 5 Grad im Plusbereich. Der Sonntag beginnt trocken und-3 Grad.
Schneeregen Schnee
19.2,0
Immer wieder Schnee-und Graupelschauer unterschiedlichster Intensität.Der Montag beginnt mit 1 Grad im Minus.
Schnee Graupel Schneegriesel
20.-
Bei Temperaturen knapp über dem Gefrierpunkt und kaltem Wind ab Mittag immer sonniger. Trocken. Frühtemperatur Dienstag bei minus 2 Grad.
Schneehöhe: 0,5cm
21.-
Schneehöhe: Überzuckert
22.-
23.-
24.-
25.-
26.-
27.-
28.-
29.-
30.-
31.-
Gesamt:11,4 
Die Spalten "Tag" und "Niederschlag" lassen sich durch Klicken auf den Spaltenkopf sortieren.
Die Angaben sind in l/m².

< Dezember 2019


Monats- und Jahresniederschlag


Wetterbeobachtungen Legende:

  • Regen
  • Nieselregen
  • Schneeregen
  • Schnee
  • Graupel
  • Eiskörner
  • Hagel
  • Bodennebel
  • Gewitter
  • Nebelnässe
  • Schneegriesel

Grafische Darstellung der Niederschläge der Station Herbertingen Januar 2020

 
wetterstationen
wetterstationen
- derzeit 80 Stationen
niederschlagsdatenbank
wetterstationen
- kartographische Darstellung
niederschlagsdatenbank
niederschlagsstationen
- derzeit 111 Stationen
niederschlagsdatenbank
niederschlagsstationen
- kartographische Darstellung
 
 
Di. 7.30 Uhr - Mi. 7.30 Uhr (MEZ)
1.Gutenzell
Kleinser Berg 1
3,0 l/m²
 
  treffpunkt & service
--- Anzeigen --------------------------------
zugriffe:
insgesamt: 45.733.484
aktueller monat: 222.044
heute: 169
momentan online: 5
 
 
monatshöchstwert: 653.625
vorheriger monat: 318.382
gestern: 12.706
tageshöchstwert: 51.297
 
wetterwarte süd
 
konradstraße 3
info@wetterwarte-sued.com
roland roth
 
88427 bad schussenried